Time,TemperatureF,DewpointF,PressureIn,WindDirection,WindDirectionDegrees,WindSpeedMPH,WindSpeedGustMPH,Humidity,HourlyPrecipIn,Conditions,Clouds,dailyrainin,SoftwareType,DateUTC
2013-02-21 00:04:00,27.3,15.0,29.77,NW,313,4.0,14.0,61,0.00,,,0.00,weatherlink.com 1.10,2013-02-21 05:04:00,
2013-02-21 00:19:00,27.2,15.0,29.77,WNW,287,4.0,15.0,61,0.00,,,0.00,weatherlink.com 1.10,2013-02-21 05:19:00,
2013-02-21 00:35:00,26.9,15.0,29.78,NNE,13,2.0,8.0,62,0.00,,,0.00,weatherlink.com 1.10,2013-02-21 05:35:00,
2013-02-21 00:50:00,27.0,15.0,29.78,West,263,3.0,10.0,62,0.00,,,0.00,weatherlink.com 1.10,2013-02-21 05:50:00,
2013-02-21 01:05:00,26.8,16.0,29.78,West,281,5.0,7.0,63,0.00,,,0.00,weatherlink.com 1.10,2013-02-21 06:05:00,
2013-02-21 01:20:00,26.7,16.0,29.78,WNW,288,4.0,9.0,63,0.00,,,0.00,weatherlink.com 1.10,2013-02-21 06:20:00,
2013-02-21 01:35:00,26.8,16.0,29.78,WNW,283,3.0,9.0,63,0.00,,,0.00,weatherlink.com 1.10,2013-02-21 06:35:00,
2013-02-21 01:50:00,27.0,15.0,29.78,West,281,3.0,10.0,62,0.00,,,0.00,weatherlink.com 1.10,2013-02-21 06:50:00,
2013-02-21 02:05:00,27.1,16.0,29.77,WNW,284,3.0,10.0,62,0.00,,,0.00,weatherlink.com 1.10,2013-02-21 07:05:00,
2013-02-21 02:20:00,27.3,15.0,29.77,WSW,244,2.0,10.0,61,0.00,,,0.00,weatherlink.com 1.10,2013-02-21 07:20:00,
2013-02-21 02:35:00,27.3,15.0,29.78,WSW,257,3.0,12.0,61,0.00,,,0.00,weatherlink.com 1.10,2013-02-21 07:35:00,
2013-02-21 02:50:00,27.4,15.0,29.78,WNW,296,7.0,11.0,60,0.00,,,0.00,weatherlink.com 1.10,2013-02-21 07:50:00,
2013-02-21 03:05:00,27.4,15.0,29.77,WSW,243,1.0,11.0,59,0.00,,,0.00,weatherlink.com 1.10,2013-02-21 08:05:00,
2013-02-21 03:20:00,27.3,15.0,29.78,NW,316,3.0,9.0,60,0.00,,,0.00,weatherlink.com 1.10,2013-02-21 08:20:00,
2013-02-21 03:35:00,27.2,14.0,29.78,NNW,347,3.0,11.0,59,0.00,,,0.00,weatherlink.com 1.10,2013-02-21 08:35:00,
2013-02-21 03:50:00,27.0,15.0,29.78,West,275,0.0,9.0,60,0.00,,,0.00,weatherlink.com 1.10,2013-02-21 08:50:00,
2013-02-21 04:05:00,26.7,14.0,29.78,West,259,11.0,13.0,59,0.00,,,0.00,weatherlink.com 1.10,2013-02-21 09:05:00,
2013-02-21 04:20:00,26.4,14.0,29.79,WNW,288,2.0,5.0,60,0.00,,,0.00,weatherlink.com 1.10,2013-02-21 09:20:00,
2013-02-21 04:35:00,26.2,14.0,29.79,WSW,254,1.0,6.0,61,0.00,,,0.00,weatherlink.com 1.10,2013-02-21 09:35:00,
2013-02-21 04:50:00,26.0,14.0,29.79,West,277,5.0,9.0,61,0.00,,,0.00,weatherlink.com 1.10,2013-02-21 09:50:00,
2013-02-21 05:05:00,25.9,14.0,29.79,WSW,252,4.0,11.0,61,0.00,,,0.00,weatherlink.com 1.10,2013-02-21 10:05:00,
2013-02-21 05:20:00,26.0,14.0,29.79,West,274,5.0,11.0,60,0.00,,,0.00,weatherlink.com 1.10,2013-02-21 10:20:00,
2013-02-21 05:35:00,26.1,14.0,29.79,West,277,3.0,15.0,60,0.00,,,0.00,weatherlink.com 1.10,2013-02-21 10:35:00,
2013-02-21 05:50:00,25.9,13.0,29.79,WNW,286,7.0,15.0,59,0.00,,,0.00,weatherlink.com 1.10,2013-02-21 10:50:00,
2013-02-21 06:05:00,25.8,13.0,29.80,WNW,297,3.0,11.0,59,0.00,,,0.00,weatherlink.com 1.10,2013-02-21 11:05:00,
2013-02-21 06:20:00,25.5,13.0,29.80,West,281,4.0,13.0,59,0.00,,,0.00,weatherlink.com 1.10,2013-02-21 11:20:00,
2013-02-21 06:35:00,25.4,12.0,29.80,WNW,291,6.0,15.0,58,0.00,,,0.00,weatherlink.com 1.10,2013-02-21 11:35:00,
2013-02-21 06:50:00,25.2,12.0,29.80,West,281,9.0,13.0,58,0.00,,,0.00,weatherlink.com 1.10,2013-02-21 11:50:00,
2013-02-21 07:05:00,25.1,12.0,29.81,WNW,298,3.0,14.0,58,0.00,,,0.00,weatherlink.com 1.10,2013-02-21 12:05:00,
2013-02-21 07:20:00,25.0,12.0,29.81,NW,314,6.0,10.0,58,0.00,,,0.00,weatherlink.com 1.10,2013-02-21 12:20:00,
2013-02-21 07:35:00,25.2,12.0,29.82,NW,326,4.0,10.0,58,0.00,,,0.00,weatherlink.com 1.10,2013-02-21 12:35:00,
2013-02-21 07:51:00,25.7,11.0,29.82,WNW,290,10.0,18.0,55,0.00,,,0.00,weatherlink.com 1.10,2013-02-21 12:51:00,
2013-02-21 08:05:00,25.7,11.0,29.82,SW,231,5.0,14.0,55,0.00,,,0.00,weatherlink.com 1.10,2013-02-21 13:05:00,
2013-02-21 08:20:00,25.7,11.0,29.82,West,281,6.0,12.0,54,0.00,,,0.00,weatherlink.com 1.10,2013-02-21 13:20:00,
2013-02-21 08:36:00,25.9,11.0,29.82,NW,304,7.0,16.0,54,0.00,,,0.00,weatherlink.com 1.10,2013-02-21 13:36:00,
2013-02-21 08:50:00,26.1,11.0,29.81,WSW,252,5.0,15.0,54,0.00,,,0.00,weatherlink.com 1.10,2013-02-21 13:50:00,
2013-02-21 09:05:00,26.8,11.0,29.80,WSW,257,8.0,17.0,51,0.00,,,0.00,weatherlink.com 1.10,2013-02-21 14:05:00,
2013-02-21 09:20:00,27.0,11.0,29.80,West,274,7.0,19.0,51,0.00,,,0.00,weatherlink.com 1.10,2013-02-21 14:20:00,
2013-02-21 09:35:00,27.4,11.0,29.80,West,273,3.0,15.0,51,0.00,,,0.00,weatherlink.com 1.10,2013-02-21 14:35:00,
2013-02-21 09:51:00,27.6,11.0,29.80,WNW,294,12.0,18.0,50,0.00,,,0.00,weatherlink.com 1.10,2013-02-21 14:51:00,
2013-02-21 10:06:00,28.1,11.0,29.81,WNW,295,3.0,12.0,49,0.00,,,0.00,weatherlink.com 1.10,2013-02-21 15:06:00,
2013-02-21 10:21:00,28.3,11.0,29.81,WSW,256,8.0,14.0,49,0.00,,,0.00,weatherlink.com 1.10,2013-02-21 15:21:00,
2013-02-21 10:36:00,29.0,11.0,29.81,NNW,336,6.0,12.0,48,0.00,,,0.00,weatherlink.com 1.10,2013-02-21 15:36:00,
2013-02-21 10:51:00,29.6,11.0,29.81,SW,233,3.0,16.0,47,0.00,,,0.00,weatherlink.com 1.10,2013-02-21 15:51:00,
2013-02-21 11:06:00,29.9,12.0,29.81,NW,323,8.0,15.0,47,0.00,,,0.00,weatherlink.com 1.10,2013-02-21 16:06:00,
2013-02-21 11:21:00,30.2,11.0,29.81,WSW,248,4.0,13.0,45,0.00,,,0.00,weatherlink.com 1.10,2013-02-21 16:21:00,
2013-02-21 11:36:00,30.5,11.0,29.80,NNW,338,6.0,14.0,45,0.00,,,0.00,weatherlink.com 1.10,2013-02-21 16:36:00,
2013-02-21 11:51:00,31.0,12.0,29.80,WNW,286,4.0,15.0,46,0.00,,,0.00,weatherlink.com 1.10,2013-02-21 16:51:00,
2013-02-21 12:06:00,31.4,12.0,29.80,West,277,5.0,13.0,44,0.00,,,0.00,weatherlink.com 1.10,2013-02-21 17:06:00,
2013-02-21 12:21:00,31.0,12.0,29.81,WNW,287,8.0,16.0,45,0.00,,,0.00,weatherlink.com 1.10,2013-02-21 17:21:00,
2013-02-21 12:36:00,30.4,12.0,29.81,WNW,300,7.0,13.0,47,0.00,,,0.00,weatherlink.com 1.10,2013-02-21 17:36:00,
2013-02-21 12:51:00,31.6,12.0,29.80,SW,233,9.0,17.0,45,0.00,,,0.00,weatherlink.com 1.10,2013-02-21 17:51:00,
2013-02-21 13:06:00,31.6,13.0,29.80,NE,41,3.0,11.0,46,0.00,,,0.00,weatherlink.com 1.10,2013-02-21 18:06:00,
2013-02-21 13:21:00,32.2,12.0,29.80,NNW,343,3.0,15.0,44,0.00,,,0.00,weatherlink.com 1.10,2013-02-21 18:21:00,
2013-02-21 13:36:00,32.8,13.0,29.80,North,353,3.0,11.0,44,0.00,,,0.00,weatherlink.com 1.10,2013-02-21 18:36:00,
2013-02-21 13:51:00,32.7,12.0,29.80,SW,236,5.0,12.0,43,0.00,,,0.00,weatherlink.com 1.10,2013-02-21 18:51:00,
2013-02-21 14:06:00,33.2,13.0,29.81,WSW,242,3.0,13.0,44,0.00,,,0.00,weatherlink.com 1.10,2013-02-21 19:06:00,
2013-02-21 14:21:00,33.3,13.0,29.81,East,82,5.0,14.0,43,0.00,,,0.00,weatherlink.com 1.10,2013-02-21 19:21:00,
2013-02-21 14:36:00,33.3,13.0,29.82,North,349,6.0,15.0,44,0.00,,,0.00,weatherlink.com 1.10,2013-02-21 19:36:00,
2013-02-21 14:51:00,33.3,13.0,29.83,WSW,251,5.0,14.0,44,0.00,,,0.00,weatherlink.com 1.10,2013-02-21 19:51:00,
2013-02-21 15:06:00,33.7,14.0,29.84,ESE,113,1.0,14.0,44,0.00,,,0.00,weatherlink.com 1.10,2013-02-21 20:06:00,
2013-02-21 15:21:00,33.0,14.0,29.84,North,6,5.0,13.0,45,0.00,,,0.00,weatherlink.com 1.10,2013-02-21 20:21:00,
2013-02-21 15:36:00,32.3,13.0,29.85,NNW,338,3.0,12.0,46,0.00,,,0.00,weatherlink.com 1.10,2013-02-21 20:36:00,
2013-02-21 15:51:00,32.3,13.0,29.86,SE,139,3.0,10.0,46,0.00,,,0.00,weatherlink.com 1.10,2013-02-21 20:51:00,
2013-02-21 16:06:00,32.1,14.0,29.86,South,173,3.0,11.0,47,0.00,,,0.00,weatherlink.com 1.10,2013-02-21 21:06:00,
2013-02-21 16:22:00,31.8,14.0,29.87,ENE,60,5.0,11.0,48,0.00,,,0.00,weatherlink.com 1.10,2013-02-21 21:22:00,
2013-02-21 16:36:00,31.8,14.0,29.89,SW,214,6.0,12.0,49,0.00,,,0.00,weatherlink.com 1.10,2013-02-21 21:36:00,
2013-02-21 16:52:00,31.2,14.0,29.90,WNW,287,6.0,14.0,49,0.00,,,0.00,weatherlink.com 1.10,2013-02-21 21:52:00,
2013-02-21 17:06:00,31.1,14.0,29.91,West,278,3.0,11.0,49,0.00,,,0.00,weatherlink.com 1.10,2013-02-21 22:06:00,
2013-02-21 17:21:00,30.5,14.0,29.93,NE,51,2.0,10.0,51,0.00,,,0.00,weatherlink.com 1.10,2013-02-21 22:21:00,
2013-02-21 17:36:00,29.8,14.0,29.94,NE,54,17.0,18.0,52,0.00,,,0.00,weatherlink.com 1.10,2013-02-21 22:36:00,
2013-02-21 17:51:00,29.4,14.0,29.95,WNW,292,3.0,16.0,52,0.00,,,0.00,weatherlink.com 1.10,2013-02-21 22:51:00,
2013-02-21 18:07:00,29.0,14.0,29.96,NE,49,2.0,12.0,53,0.00,,,0.00,weatherlink.com 1.10,2013-02-21 23:07:00,
2013-02-21 18:22:00,28.8,14.0,29.98,NNE,25,4.0,14.0,54,0.00,,,0.00,weatherlink.com 1.10,2013-02-21 23:22:00,
2013-02-21 18:37:00,28.7,14.0,29.99,NW,316,6.0,14.0,55,0.00,,,0.00,weatherlink.com 1.10,2013-02-21 23:37:00,
2013-02-21 18:52:00,28.5,14.0,30.00,WSW,238,4.0,12.0,54,0.00,,,0.00,weatherlink.com 1.10,2013-02-21 23:52:00,
2013-02-21 19:07:00,28.2,14.0,30.02,West,277,3.0,12.0,55,0.00,,,0.00,weatherlink.com 1.10,2013-02-22 00:07:00,
2013-02-21 19:22:00,27.8,14.0,30.03,NW,312,9.0,9.0,56,0.00,,,0.00,weatherlink.com 1.10,2013-02-22 00:22:00,
2013-02-21 19:37:00,27.4,14.0,30.03,NW,320,5.0,8.0,57,0.00,,,0.00,weatherlink.com 1.10,2013-02-22 00:37:00,
2013-02-21 19:52:00,27.1,14.0,30.04,NNW,329,5.0,10.0,59,0.00,,,0.00,weatherlink.com 1.10,2013-02-22 00:52:00,
2013-02-21 20:07:00,26.9,15.0,30.05,ENE,62,6.0,11.0,60,0.00,,,0.00,weatherlink.com 1.10,2013-02-22 01:07:00,
2013-02-21 20:22:00,26.7,14.0,30.06,NW,307,5.0,9.0,60,0.00,,,0.00,weatherlink.com 1.10,2013-02-22 01:22:00,
2013-02-21 20:37:00,26.6,15.0,30.07,NNE,21,2.0,4.0,61,0.00,,,0.00,weatherlink.com 1.10,2013-02-22 01:37:00,
2013-02-21 20:52:00,26.7,15.0,30.08,NW,309,3.0,8.0,61,0.00,,,0.00,weatherlink.com 1.10,2013-02-22 01:52:00,
2013-02-21 21:07:00,26.6,15.0,30.09,NNE,25,6.0,9.0,62,0.00,,,0.00,weatherlink.com 1.10,2013-02-22 02:07:00,
2013-02-21 21:22:00,26.3,15.0,30.10,NNE,25,2.0,8.0,63,0.00,,,0.00,weatherlink.com 1.10,2013-02-22 02:22:00,
2013-02-21 21:37:00,26.2,15.0,30.10,West,266,0.0,8.0,63,0.00,,,0.00,weatherlink.com 1.10,2013-02-22 02:37:00,
2013-02-21 21:52:00,26.1,15.0,30.10,NNE,12,3.0,7.0,64,0.00,,,0.00,weatherlink.com 1.10,2013-02-22 02:52:00,
2013-02-21 22:07:00,26.1,15.0,30.11,WNW,284,2.0,9.0,64,0.00,,,0.00,weatherlink.com 1.10,2013-02-22 03:07:00,
2013-02-21 22:22:00,26.1,16.0,30.10,NNW,334,3.0,7.0,65,0.00,,,0.00,weatherlink.com 1.10,2013-02-22 03:22:00,
2013-02-21 22:37:00,26.2,16.0,30.11,NNW,336,3.0,5.0,66,0.00,,,0.00,weatherlink.com 1.10,2013-02-22 03:37:00,
2013-02-21 22:52:00,26.2,16.0,30.12,North,1,1.0,7.0,65,0.00,,,0.00,weatherlink.com 1.10,2013-02-22 03:52:00,
2013-02-21 23:07:00,26.2,16.0,30.14,NW,320,2.0,6.0,66,0.00,,,0.00,weatherlink.com 1.10,2013-02-22 04:07:00,
2013-02-21 23:22:00,26.3,16.0,30.15,WSW,252,3.0,6.0,66,0.00,,,0.00,weatherlink.com 1.10,2013-02-22 04:22:00,
2013-02-21 23:37:00,25.9,16.0,30.16,NW,323,1.0,5.0,67,0.00,,,0.00,weatherlink.com 1.10,2013-02-22 04:37:00,
2013-02-21 23:52:00,25.9,16.0,30.16,NE,44,4.0,5.0,67,0.00,,,0.00,weatherlink.com 1.10,2013-02-22 04:52:00,